createdAt,value
2016-11-24T00:00:33.334Z,41.55
2016-11-24T00:01:14.029Z,41.66
2016-11-24T00:01:54.716Z,41.55
2016-11-24T00:02:35.427Z,41.83
2016-11-24T00:03:16.082Z,41.74
2016-11-24T00:03:56.783Z,41.64
2016-11-24T00:04:37.495Z,41.55
2016-11-24T00:05:18.177Z,41.74
2016-11-24T00:05:58.922Z,41.64
2016-11-24T00:06:39.612Z,41.66
2016-11-24T00:07:20.354Z,41.64
2016-11-24T00:08:01.052Z,41.93
2016-11-24T00:08:41.710Z,41.66
2016-11-24T00:09:22.391Z,41.56
2016-11-24T00:10:03.070Z,41.55
2016-11-24T00:10:43.805Z,41.74
2016-11-24T00:11:24.559Z,41.74
2016-11-24T00:12:05.231Z,41.55
2016-11-24T00:12:45.932Z,41.64
2016-11-24T00:13:26.651Z,41.64
2016-11-24T00:14:07.433Z,41.83
2016-11-24T00:14:48.098Z,41.83
2016-11-24T00:15:28.827Z,41.55
2016-11-24T00:16:09.548Z,41.45
2016-11-24T00:16:50.237Z,41.55
2016-11-24T00:17:30.975Z,41.64
2016-11-24T00:18:11.646Z,41.83
2016-11-24T00:18:52.374Z,41.55
2016-11-24T00:19:33.056Z,41.74
2016-11-24T00:20:13.771Z,41.55
2016-11-24T00:20:54.434Z,41.64
2016-11-24T00:21:35.134Z,41.45
2016-11-24T00:22:15.843Z,41.45
2016-11-24T00:22:56.555Z,41.45
2016-11-24T00:23:37.269Z,41.64
2016-11-24T00:24:17.966Z,41.64
2016-11-24T00:24:58.706Z,41.74
2016-11-24T00:25:39.411Z,41.55
2016-11-24T00:26:20.128Z,41.45
2016-11-24T00:27:00.784Z,41.45
2016-11-24T00:27:41.505Z,41.35
2016-11-24T00:28:22.183Z,41.74
2016-11-24T00:29:02.864Z,41.83
2016-11-24T00:29:43.584Z,41.64
2016-11-24T00:30:24.298Z,41.64
2016-11-24T00:31:05.034Z,41.83
2016-11-24T00:31:45.699Z,41.93
2016-11-24T00:32:26.363Z,41.64
2016-11-24T00:33:07.051Z,41.74
2016-11-24T00:33:47.774Z,41.64
2016-11-24T00:34:28.407Z,41.74
2016-11-24T00:35:09.173Z,41.83
2016-11-24T00:35:49.890Z,41.64
2016-11-24T00:36:30.565Z,41.64
2016-11-24T00:37:11.351Z,41.74
2016-11-24T00:37:52.044Z,41.83
2016-11-24T00:38:32.683Z,41.83
2016-11-24T00:39:13.375Z,41.83
2016-11-24T00:39:54.115Z,41.55
2016-11-24T00:40:34.807Z,41.55
2016-11-24T00:41:15.469Z,41.74
2016-11-24T00:41:56.118Z,41.64
2016-11-24T00:42:36.849Z,41.64
2016-11-24T00:43:17.557Z,41.64
2016-11-24T00:43:58.211Z,41.93
2016-11-24T00:44:38.927Z,41.55
2016-11-24T00:45:19.639Z,41.64
2016-11-24T00:46:00.372Z,41.64
2016-11-24T00:46:41.052Z,41.74
2016-11-24T00:47:21.753Z,41.83
2016-11-24T00:48:02.415Z,41.83
2016-11-24T00:48:43.109Z,41.83
2016-11-24T00:49:23.801Z,41.55
2016-11-24T00:50:04.581Z,41.64
2016-11-24T00:50:45.260Z,41.55
2016-11-24T00:51:25.965Z,41.55
2016-11-24T00:52:06.697Z,41.64
2016-11-24T00:52:47.375Z,41.74
2016-11-24T00:53:28.126Z,41.93
2016-11-24T00:54:08.802Z,41.83
2016-11-24T00:54:49.530Z,41.74
2016-11-24T00:55:30.244Z,41.74
2016-11-24T00:56:10.919Z,41.83
2016-11-24T00:56:51.650Z,41.83
2016-11-24T00:57:32.395Z,41.55
2016-11-24T00:58:13.032Z,41.74
2016-11-24T00:58:53.740Z,41.64
2016-11-24T00:59:34.424Z,41.64
2016-11-24T01:00:15.061Z,41.55
2016-11-24T01:00:55.735Z,41.45
2016-11-24T01:01:36.481Z,41.55
2016-11-24T01:02:17.222Z,41.55
2016-11-24T01:02:57.898Z,41.55
2016-11-24T01:03:38.582Z,41.64
2016-11-24T01:04:19.308Z,41.64
2016-11-24T01:05:00.010Z,41.45
2016-11-24T01:05:40.636Z,41.45
2016-11-24T01:06:21.315Z,41.64
2016-11-24T01:07:02.118Z,41.45
2016-11-24T01:07:42.814Z,41.45
2016-11-24T01:08:23.497Z,41.55
2016-11-24T01:09:04.182Z,41.64
2016-11-24T01:09:44.915Z,41.45
2016-11-24T01:10:25.575Z,41.55
2016-11-24T01:11:06.295Z,41.55
2016-11-24T01:11:47.006Z,41.55
2016-11-24T01:12:27.688Z,41.55
2016-11-24T01:13:08.379Z,41.35
2016-11-24T01:13:49.073Z,41.55
2016-11-24T01:14:29.752Z,41.55
2016-11-24T01:15:10.480Z,41.45
2016-11-24T01:15:51.151Z,41.45
2016-11-24T01:16:31.857Z,41.45
2016-11-24T01:17:12.562Z,41.35
2016-11-24T01:17:53.256Z,41.55
2016-11-24T01:18:33.980Z,41.35
2016-11-24T01:19:14.650Z,41.45
2016-11-24T01:19:55.321Z,41.74
2016-11-24T01:20:35.982Z,41.55
2016-11-24T01:21:16.676Z,41.45
2016-11-24T01:21:57.348Z,41.45
2016-11-24T01:22:38.011Z,41.45
2016-11-24T01:23:18.705Z,41.55
2016-11-24T01:23:59.384Z,41.45
2016-11-24T01:24:40.052Z,41.35
2016-11-24T01:25:20.704Z,41.55
2016-11-24T01:26:01.367Z,41.45
2016-11-24T01:26:42.020Z,41.55
2016-11-24T01:27:22.726Z,41.74
2016-11-24T01:28:03.403Z,41.55
2016-11-24T01:28:44.080Z,41.55
2016-11-24T01:29:24.782Z,41.55
2016-11-24T01:30:05.460Z,41.64
2016-11-24T01:30:46.153Z,41.55
2016-11-24T01:31:26.846Z,41.45
2016-11-24T01:32:07.530Z,41.55
2016-11-24T01:32:48.262Z,41.55
2016-11-24T01:33:28.920Z,41.55
2016-11-24T01:34:09.685Z,41.45
2016-11-24T01:34:50.358Z,41.74
2016-11-24T01:35:31.008Z,41.45
2016-11-24T01:36:11.700Z,41.55
2016-11-24T01:36:52.402Z,41.45
2016-11-24T01:37:33.162Z,41.45
2016-11-24T01:38:13.865Z,41.55
2016-11-24T01:38:54.514Z,41.55
2016-11-24T01:39:35.173Z,41.45
2016-11-24T01:40:15.901Z,41.45
2016-11-24T01:40:56.681Z,41.45
2016-11-24T01:41:37.392Z,41.55
2016-11-24T01:42:18.119Z,41.64
2016-11-24T01:42:58.781Z,41.55
2016-11-24T01:43:39.500Z,41.64
2016-11-24T01:44:20.185Z,41.45
2016-11-24T01:45:00.864Z,41.35
2016-11-24T01:45:41.629Z,41.45
2016-11-24T01:46:22.316Z,41.55
2016-11-24T01:47:02.984Z,41.64
2016-11-24T01:47:43.709Z,41.55
2016-11-24T01:48:24.395Z,41.45
2016-11-24T01:49:05.029Z,41.55
2016-11-24T01:49:45.737Z,41.45
2016-11-24T01:50:26.420Z,41.64
2016-11-24T01:51:07.127Z,41.45
2016-11-24T01:51:47.882Z,41.55
2016-11-24T01:52:28.548Z,41.45
2016-11-24T01:53:09.263Z,41.55
2016-11-24T01:53:49.991Z,41.64
2016-11-24T01:54:30.695Z,41.55
2016-11-24T01:55:11.388Z,41.64
2016-11-24T01:55:52.095Z,41.45
2016-11-24T01:56:32.776Z,41.55
2016-11-24T01:57:13.414Z,41.55
2016-11-24T01:57:54.148Z,41.55
2016-11-24T01:58:34.824Z,41.55
2016-11-24T01:59:15.512Z,41.64
2016-11-24T01:59:56.257Z,41.62
2016-11-24T02:00:37.023Z,41.55
2016-11-24T02:01:17.700Z,41.42
2016-11-24T02:01:58.418Z,41.52
2016-11-24T02:02:39.118Z,41.52
2016-11-24T02:03:19.886Z,41.52
2016-11-24T02:04:00.520Z,41.55
2016-11-24T02:04:41.238Z,41.52
2016-11-24T02:05:21.960Z,41.55
2016-11-24T02:06:02.765Z,41.55
2016-11-24T02:06:43.474Z,41.74
2016-11-24T02:07:24.176Z,41.62
2016-11-24T02:08:04.904Z,41.62
2016-11-24T02:08:45.585Z,41.55
2016-11-24T02:09:26.287Z,41.52
2016-11-24T02:10:06.956Z,41.52
2016-11-24T02:10:47.631Z,41.52
2016-11-24T02:11:28.329Z,41.52
2016-11-24T02:12:09.021Z,41.72
2016-11-24T02:12:49.748Z,41.52
2016-11-24T02:13:30.456Z,41.52
2016-11-24T02:14:11.095Z,41.42
2016-11-24T02:14:51.819Z,41.52
2016-11-24T02:15:32.489Z,41.52
2016-11-24T02:16:13.193Z,41.62
2016-11-24T02:16:53.896Z,41.62
2016-11-24T02:17:34.589Z,41.14
2016-11-24T02:18:15.295Z,41.14
2016-11-24T02:18:55.998Z,41.25
2016-11-24T02:19:36.665Z,41.42
2016-11-24T02:20:17.407Z,41.62
2016-11-24T02:20:58.115Z,41.52
2016-11-24T02:21:38.793Z,41.72
2016-11-24T02:22:19.506Z,41.52
2016-11-24T02:23:00.168Z,41.42
2016-11-24T02:23:40.876Z,41.72
2016-11-24T02:24:21.563Z,41.52
2016-11-24T02:25:02.258Z,41.62
2016-11-24T02:25:42.938Z,41.62
2016-11-24T02:26:23.598Z,41.25
2016-11-24T02:27:04.298Z,41.52
2016-11-24T02:27:45.014Z,41.42
2016-11-24T02:28:25.724Z,41.72
2016-11-24T02:29:06.456Z,41.72
2016-11-24T02:29:47.122Z,41.52
2016-11-24T02:30:27.811Z,41.52
2016-11-24T02:31:08.550Z,41.52
2016-11-24T02:31:49.229Z,41.52
2016-11-24T02:32:29.870Z,41.42
2016-11-24T02:33:10.578Z,41.62
2016-11-24T02:33:51.324Z,41.52
2016-11-24T02:34:32.019Z,41.52
2016-11-24T02:35:12.748Z,41.52
2016-11-24T02:35:53.444Z,41.52
2016-11-24T02:36:34.167Z,41.72
2016-11-24T02:37:14.857Z,41.52
2016-11-24T02:37:55.568Z,41.52
2016-11-24T02:38:36.283Z,41.42
2016-11-24T02:39:16.961Z,41.42
2016-11-24T02:39:57.653Z,41.52
2016-11-24T02:40:38.450Z,41.62
2016-11-24T02:41:19.177Z,41.52
2016-11-24T02:41:59.886Z,41.72
2016-11-24T02:42:40.529Z,41.72
2016-11-24T02:43:21.202Z,41.42
2016-11-24T02:44:01.913Z,41.52
2016-11-24T02:44:42.625Z,41.42
2016-11-24T02:45:23.298Z,41.52
2016-11-24T02:46:03.957Z,41.62
2016-11-24T02:46:44.696Z,41.52
2016-11-24T02:47:25.391Z,41.42
2016-11-24T02:48:06.089Z,41.52
2016-11-24T02:48:46.822Z,41.52
2016-11-24T02:49:27.572Z,41.52
2016-11-24T02:50:08.249Z,41.42
2016-11-24T02:50:48.960Z,41.04
2016-11-24T02:51:29.680Z,41.52
2016-11-24T02:52:10.429Z,41.42
2016-11-24T02:52:51.104Z,41.42
2016-11-24T02:53:31.856Z,41.42
2016-11-24T02:54:12.568Z,41.52
2016-11-24T02:54:53.232Z,41.42
2016-11-24T02:55:33.930Z,41.42
2016-11-24T02:56:14.681Z,41.42
2016-11-24T02:56:55.345Z,41.42
2016-11-24T02:57:36.055Z,41.72
2016-11-24T02:58:16.746Z,41.72
2016-11-24T02:58:57.380Z,41.62
2016-11-24T02:59:38.125Z,41.24
2016-11-24T03:00:18.812Z,41.14
2016-11-24T03:00:59.513Z,41.62
2016-11-24T03:01:40.205Z,41.42
2016-11-24T03:02:20.900Z,41.52
2016-11-24T03:03:01.555Z,41.52
2016-11-24T03:03:42.227Z,41.52
2016-11-24T03:04:22.985Z,41.72
2016-11-24T03:05:03.692Z,41.62
2016-11-24T03:05:44.367Z,41.04
2016-11-24T03:06:25.069Z,41.62
2016-11-24T03:07:05.739Z,41.62
2016-11-24T03:07:46.389Z,41.33
2016-11-24T03:08:27.045Z,41.62
2016-11-24T03:09:07.768Z,41.33
2016-11-24T03:09:48.566Z,41.52
2016-11-24T03:10:29.227Z,41.04
2016-11-24T03:11:09.973Z,40.94
2016-11-24T03:11:50.695Z,40.94
2016-11-24T03:12:31.391Z,40.84
2016-11-24T03:13:12.051Z,40.75
2016-11-24T03:13:52.773Z,40.65
2016-11-24T03:14:33.442Z,40.65
2016-11-24T03:15:14.156Z,40.65
2016-11-24T03:15:54.854Z,40.75
2016-11-24T03:16:35.602Z,40.65
2016-11-24T03:17:16.297Z,40.75
2016-11-24T03:17:57.007Z,40.84
2016-11-24T03:18:37.753Z,40.65
2016-11-24T03:19:18.427Z,40.65
2016-11-24T03:19:59.188Z,40.65
2016-11-24T03:20:39.851Z,40.75
2016-11-24T03:21:20.495Z,40.94
2016-11-24T03:22:01.239Z,41.04
2016-11-24T03:22:41.950Z,41.04
2016-11-24T03:23:22.706Z,40.75
2016-11-24T03:24:03.354Z,40.75
2016-11-24T03:24:44.031Z,40.84
2016-11-24T03:25:24.729Z,40.84
2016-11-24T03:26:05.471Z,40.75
2016-11-24T03:26:46.105Z,40.75
2016-11-24T03:27:26.875Z,40.84
2016-11-24T03:28:07.509Z,40.75
2016-11-24T03:28:48.205Z,40.75
2016-11-24T03:29:28.947Z,40.56
2016-11-24T03:30:09.610Z,40.75
2016-11-24T03:30:50.363Z,40.84
2016-11-24T03:31:31.078Z,40.75
2016-11-24T03:32:11.781Z,40.75
2016-11-24T03:32:52.418Z,40.75
2016-11-24T03:33:33.121Z,40.65
2016-11-24T03:34:13.833Z,40.56
2016-11-24T03:34:54.527Z,40.84
2016-11-24T03:35:35.221Z,40.46
2016-11-24T03:36:15.954Z,40.56
2016-11-24T03:36:56.630Z,40.65
2016-11-24T03:37:37.371Z,40.65
2016-11-24T03:38:18.077Z,40.46
2016-11-24T03:38:58.798Z,40.56
2016-11-24T03:39:39.499Z,40.65
2016-11-24T03:40:20.222Z,40.65
2016-11-24T03:41:00.915Z,40.56
2016-11-24T03:41:41.625Z,40.46
2016-11-24T03:42:22.291Z,40.65
2016-11-24T03:43:03.024Z,40.65
2016-11-24T03:43:43.692Z,40.75
2016-11-24T03:44:24.386Z,40.65
2016-11-24T03:45:05.086Z,40.84
2016-11-24T03:45:45.819Z,40.75
2016-11-24T03:46:26.482Z,40.65
2016-11-24T03:47:07.213Z,40.65
2016-11-24T03:47:47.913Z,40.46
2016-11-24T03:48:28.648Z,40.46
2016-11-24T03:49:09.403Z,40.46
2016-11-24T03:49:50.103Z,40.56
2016-11-24T03:50:30.773Z,40.46
2016-11-24T03:51:11.417Z,40.46
2016-11-24T03:51:52.074Z,40.36
2016-11-24T03:52:32.778Z,40.46
2016-11-24T03:53:13.494Z,40.46
2016-11-24T03:53:54.186Z,40.46
2016-11-24T03:54:34.890Z,40.36
2016-11-24T03:55:15.607Z,40.46
2016-11-24T03:55:56.294Z,40.46
2016-11-24T03:56:36.986Z,40.46
2016-11-24T03:57:17.709Z,40.56
2016-11-24T03:57:58.435Z,40.36
2016-11-24T03:58:39.182Z,40.46
2016-11-24T03:59:19.818Z,40.36
2016-11-24T04:00:00.555Z,40.65
2016-11-24T04:00:41.274Z,40.36
2016-11-24T04:01:21.931Z,40.56
2016-11-24T04:02:02.639Z,40.56
2016-11-24T04:02:43.373Z,40.36
2016-11-24T04:03:24.002Z,40.36
2016-11-24T04:04:04.711Z,40.46
2016-11-24T04:04:45.431Z,40.56
2016-11-24T04:05:26.131Z,40.26
2016-11-24T04:06:06.864Z,40.56
2016-11-24T04:06:47.523Z,40.26
2016-11-24T04:07:28.200Z,40.46
2016-11-24T04:08:08.899Z,40.56
2016-11-24T04:08:49.626Z,40.46
2016-11-24T04:09:30.294Z,40.17
2016-11-24T04:10:10.974Z,40.56
2016-11-24T04:10:51.644Z,40.56
2016-11-24T04:11:32.335Z,40.36
2016-11-24T04:12:13.039Z,40.46
2016-11-24T04:12:53.713Z,40.46
2016-11-24T04:13:34.407Z,40.56
2016-11-24T04:14:15.089Z,40.56
2016-11-24T04:14:55.775Z,40.56
2016-11-24T04:15:36.474Z,40.46
2016-11-24T04:16:17.129Z,40.17
2016-11-24T04:16:57.826Z,40.56
2016-11-24T04:17:38.545Z,40.46
2016-11-24T04:18:19.263Z,40.46
2016-11-24T04:18:59.998Z,40.26
2016-11-24T04:19:40.671Z,40.36
2016-11-24T04:20:21.368Z,40.53
2016-11-24T04:21:02.083Z,40.36
2016-11-24T04:21:42.826Z,40.36
2016-11-24T04:22:23.533Z,40.26
2016-11-24T04:23:04.193Z,39.95
2016-11-24T04:23:44.883Z,40.07
2016-11-24T04:24:25.481Z,40.34
2016-11-24T04:25:06.133Z,40.26
2016-11-24T04:25:46.900Z,40.25
2016-11-24T04:26:27.593Z,40.17
2016-11-24T04:27:08.275Z,40.36
2016-11-24T04:27:48.973Z,40.34
2016-11-24T04:28:29.679Z,40.07
2016-11-24T04:29:10.370Z,40.25
2016-11-24T04:29:51.071Z,40.26
2016-11-24T04:30:31.756Z,40.25
2016-11-24T04:31:12.483Z,39.97
2016-11-24T04:31:53.180Z,40.25
2016-11-24T04:32:33.841Z,40.26
2016-11-24T04:33:14.578Z,40.17
2016-11-24T04:33:55.269Z,40.17
2016-11-24T04:34:35.981Z,40.34
2016-11-24T04:35:16.651Z,40.26
2016-11-24T04:35:57.298Z,40.15
2016-11-24T04:36:38.017Z,40.17
2016-11-24T04:37:18.706Z,40.07
2016-11-24T04:37:59.446Z,40.07
2016-11-24T04:38:40.137Z,40.25
2016-11-24T04:39:20.835Z,39.97
2016-11-24T04:40:01.526Z,39.95
2016-11-24T04:40:42.204Z,40.25
2016-11-24T04:41:22.864Z,40.25
2016-11-24T04:42:03.511Z,40.36
2016-11-24T04:42:44.231Z,40.17
2016-11-24T04:43:24.891Z,40.17
2016-11-24T04:44:05.603Z,40.34
2016-11-24T04:44:46.249Z,40.17
2016-11-24T04:45:26.916Z,39.78
2016-11-24T04:46:07.571Z,39.88
2016-11-24T04:46:48.277Z,40.17
2016-11-24T04:47:29.023Z,40.05
2016-11-24T04:48:09.686Z,40.05
2016-11-24T04:48:50.386Z,40.15
2016-11-24T04:49:31.118Z,40.15
2016-11-24T04:50:11.771Z,40.07
2016-11-24T04:50:52.514Z,40.26
2016-11-24T04:51:33.237Z,40.26
2016-11-24T04:52:13.910Z,40.07
2016-11-24T04:52:54.555Z,39.97
2016-11-24T04:53:35.289Z,40.17
2016-11-24T04:54:15.948Z,39.86
2016-11-24T04:54:56.627Z,40.17
2016-11-24T04:55:37.363Z,39.88
2016-11-24T04:56:18.044Z,40.05
2016-11-24T04:56:58.729Z,39.95
2016-11-24T04:57:39.431Z,40.05
2016-11-24T04:58:20.109Z,40.15
2016-11-24T04:59:00.780Z,40.15
2016-11-24T04:59:41.501Z,40.15
2016-11-24T05:00:22.236Z,40.17
2016-11-24T05:01:02.975Z,40.36
2016-11-24T05:01:43.686Z,40.05
2016-11-24T05:02:24.384Z,39.76
2016-11-24T05:03:05.090Z,40.15
2016-11-24T05:03:45.800Z,39.76
2016-11-24T05:04:26.461Z,40.26
2016-11-24T05:05:07.209Z,39.69
2016-11-24T05:05:47.938Z,39.76
2016-11-24T05:06:28.624Z,40.07
2016-11-24T05:07:09.259Z,39.67
2016-11-24T05:07:49.984Z,39.59
2016-11-24T05:08:30.713Z,39.59
2016-11-24T05:09:11.448Z,39.69
2016-11-24T05:09:52.136Z,39.76
2016-11-24T05:10:32.871Z,39.69
2016-11-24T05:11:13.530Z,39.69
2016-11-24T05:11:54.192Z,39.59
2016-11-24T05:12:34.849Z,39.59
2016-11-24T05:13:15.532Z,39.69
2016-11-24T05:13:56.208Z,39.67
2016-11-24T05:14:36.846Z,39.67
2016-11-24T05:15:17.559Z,39.57
2016-11-24T05:15:58.201Z,39.67
2016-11-24T05:16:38.928Z,39.69
2016-11-24T05:17:19.574Z,39.67
2016-11-24T05:18:00.262Z,39.57
2016-11-24T05:18:40.983Z,39.67
2016-11-24T05:19:21.735Z,39.69
2016-11-24T05:20:02.465Z,39.67
2016-11-24T05:20:43.193Z,40.05
2016-11-24T05:21:23.844Z,39.69
2016-11-24T05:22:04.511Z,39.67
2016-11-24T05:22:45.165Z,39.76
2016-11-24T05:23:25.844Z,39.57
2016-11-24T05:24:06.520Z,39.57
2016-11-24T05:24:47.184Z,39.57
2016-11-24T05:25:27.952Z,39.57
2016-11-24T05:26:08.623Z,39.67
2016-11-24T05:26:49.303Z,39.67
2016-11-24T05:27:30.019Z,39.67
2016-11-24T05:28:10.743Z,39.67
2016-11-24T05:28:51.474Z,39.67
2016-11-24T05:29:32.207Z,39.67
2016-11-24T05:30:12.885Z,39.67
2016-11-24T05:30:53.653Z,39.76
2016-11-24T05:31:34.284Z,39.86
2016-11-24T05:32:14.988Z,39.67
2016-11-24T05:32:55.767Z,39.67
2016-11-24T05:33:36.460Z,39.57
2016-11-24T05:34:17.162Z,39.76
2016-11-24T05:34:57.897Z,39.76
2016-11-24T05:35:38.613Z,39.76
2016-11-24T05:36:19.286Z,39.76
2016-11-24T05:36:59.915Z,39.67
2016-11-24T05:37:40.636Z,39.76
2016-11-24T05:38:21.348Z,39.86
2016-11-24T05:39:02.038Z,39.67
2016-11-24T05:39:42.688Z,39.76
2016-11-24T05:40:23.339Z,39.86
2016-11-24T05:41:04.027Z,39.86
2016-11-24T05:41:44.763Z,39.86
2016-11-24T05:42:25.471Z,39.76
2016-11-24T05:43:06.156Z,39.86
2016-11-24T05:43:46.829Z,39.76
2016-11-24T05:44:27.534Z,39.57
2016-11-24T05:45:08.290Z,39.67
2016-11-24T05:45:48.938Z,39.67
2016-11-24T05:46:29.602Z,39.86
2016-11-24T05:47:10.319Z,39.67
2016-11-24T05:47:51.006Z,39.67
2016-11-24T05:48:31.691Z,39.76
2016-11-24T05:49:12.362Z,39.86
2016-11-24T05:49:53.008Z,39.86
2016-11-24T05:50:33.689Z,39.76
2016-11-24T05:51:14.318Z,39.86
2016-11-24T05:51:55.012Z,39.86
2016-11-24T05:52:35.705Z,39.76
2016-11-24T05:53:16.401Z,39.86
2016-11-24T05:53:57.151Z,39.95
2016-11-24T05:54:37.864Z,39.76
2016-11-24T05:55:18.582Z,39.86
2016-11-24T05:55:59.278Z,39.95
2016-11-24T05:56:39.968Z,39.95
2016-11-24T05:57:20.661Z,39.95
2016-11-24T05:58:01.325Z,39.95
2016-11-24T05:58:42.028Z,39.95
2016-11-24T05:59:22.729Z,39.86
2016-11-24T06:00:03.506Z,39.86
2016-11-24T06:00:44.204Z,39.95
2016-11-24T06:01:24.953Z,39.86
2016-11-24T06:02:05.683Z,39.67
2016-11-24T06:02:46.330Z,39.95
2016-11-24T06:03:27.032Z,39.86
2016-11-24T06:04:07.810Z,39.95
2016-11-24T06:04:48.564Z,40.05
2016-11-24T06:05:29.292Z,39.95
2016-11-24T06:06:10.015Z,39.86
2016-11-24T06:06:50.743Z,39.95
2016-11-24T06:07:31.465Z,39.95
2016-11-24T06:08:12.145Z,39.86
2016-11-24T06:08:52.784Z,39.76
2016-11-24T06:09:33.549Z,39.67
2016-11-24T06:10:14.243Z,39.57
2016-11-24T06:10:54.963Z,39.76
2016-11-24T06:11:35.660Z,39.47
2016-11-24T06:12:16.348Z,39.76
2016-11-24T06:12:57.001Z,39.67
2016-11-24T06:13:37.743Z,39.76
2016-11-24T06:14:18.449Z,39.76
2016-11-24T06:14:59.145Z,39.67
2016-11-24T06:15:39.835Z,39.67
2016-11-24T06:16:20.571Z,39.67
2016-11-24T06:17:01.251Z,39.57
2016-11-24T06:17:41.922Z,39.57
2016-11-24T06:18:22.617Z,39.57
2016-11-24T06:19:03.315Z,39.67
2016-11-24T06:19:43.958Z,39.57
2016-11-24T06:20:24.685Z,39.47
2016-11-24T06:21:05.436Z,39.67
2016-11-24T06:21:46.134Z,39.57
2016-11-24T06:22:26.802Z,39.47
2016-11-24T06:23:07.562Z,39.47
2016-11-24T06:23:48.177Z,39.47
2016-11-24T06:24:28.863Z,39.47
2016-11-24T06:25:09.582Z,39.47
2016-11-24T06:25:50.290Z,39.37
2016-11-24T06:26:31.020Z,39.18
2016-11-24T06:27:11.707Z,39.37
2016-11-24T06:27:52.390Z,39.09
2016-11-24T06:28:33.108Z,39.09
2016-11-24T06:29:13.777Z,39.47
2016-11-24T06:29:54.436Z,39.18
2016-11-24T06:30:35.154Z,39.47
2016-11-24T06:31:15.850Z,39.47
2016-11-24T06:31:56.512Z,39.09
2016-11-24T06:32:37.211Z,38.89
2016-11-24T06:33:17.859Z,38.99
2016-11-24T06:33:58.630Z,39.28
2016-11-24T06:34:39.353Z,38.89
2016-11-24T06:35:20.016Z,38.89
2016-11-24T06:36:00.776Z,39.28
2016-11-24T06:36:41.470Z,38.89
2016-11-24T06:37:22.159Z,38.99
2016-11-24T06:38:02.800Z,38.89
2016-11-24T06:38:43.499Z,38.99
2016-11-24T06:39:24.211Z,39.09
2016-11-24T06:40:04.905Z,39.09
2016-11-24T06:40:45.687Z,38.89
2016-11-24T06:41:26.393Z,39.09
2016-11-24T06:42:07.146Z,39.18
2016-11-24T06:42:47.836Z,39.18
2016-11-24T06:43:28.485Z,38.89
2016-11-24T06:44:09.178Z,39.09
2016-11-24T06:44:49.899Z,38.89
2016-11-24T06:45:30.593Z,38.89
2016-11-24T06:46:11.256Z,38.89
2016-11-24T06:46:51.951Z,39.28
2016-11-24T06:47:32.627Z,38.99
2016-11-24T06:48:13.318Z,38.99
2016-11-24T06:48:53.995Z,39.09
2016-11-24T06:49:34.646Z,38.79
2016-11-24T06:50:15.342Z,39.18
2016-11-24T06:50:56.016Z,39.18
2016-11-24T06:51:36.679Z,39.28
2016-11-24T06:52:17.378Z,39.18
2016-11-24T06:52:58.085Z,38.89
2016-11-24T06:53:38.801Z,39.09
2016-11-24T06:54:19.468Z,39.18
2016-11-24T06:55:00.155Z,38.79
2016-11-24T06:55:40.891Z,39.18
2016-11-24T06:56:21.600Z,39.09
2016-11-24T06:57:02.310Z,39.18
2016-11-24T06:57:42.992Z,39.09
2016-11-24T06:58:23.750Z,39.09
2016-11-24T06:59:04.459Z,39.18
2016-11-24T06:59:45.141Z,39.09
2016-11-24T07:00:25.861Z,39.18
2016-11-24T07:01:06.595Z,38.81
2016-11-24T07:01:47.281Z,39.47
2016-11-24T07:02:27.940Z,39.57
2016-11-24T07:03:08.625Z,39.76
2016-11-24T07:03:49.330Z,39.86
2016-11-24T07:04:30.036Z,39.95
2016-11-24T07:05:10.724Z,39.67
2016-11-24T07:05:51.431Z,39.86
2016-11-24T07:06:32.243Z,39.86
2016-11-24T07:07:12.954Z,39.76
2016-11-24T07:07:53.663Z,39.95
2016-11-24T07:08:34.379Z,39.86
2016-11-24T07:09:15.034Z,39.95
2016-11-24T07:09:55.772Z,39.95
2016-11-24T07:10:36.448Z,39.95
2016-11-24T07:11:17.209Z,39.95
2016-11-24T07:11:57.904Z,39.95
2016-11-24T07:12:38.580Z,39.86
2016-11-24T07:13:19.331Z,39.86
2016-11-24T07:14:00.029Z,39.95
2016-11-24T07:14:40.650Z,39.95
2016-11-24T07:15:21.365Z,39.95
2016-11-24T07:16:02.045Z,39.76
2016-11-24T07:16:42.732Z,39.67
2016-11-24T07:17:23.438Z,39.76
2016-11-24T07:18:04.199Z,39.86
2016-11-24T07:18:44.992Z,39.57
2016-11-24T07:19:25.664Z,39.67
2016-11-24T07:20:06.308Z,39.67
2016-11-24T07:20:47.013Z,39.57
2016-11-24T07:21:27.742Z,39.76
2016-11-24T07:22:08.450Z,40.15
2016-11-24T07:22:49.185Z,40.03
2016-11-24T07:23:29.841Z,40.15
2016-11-24T07:24:10.569Z,39.76
2016-11-24T07:24:51.228Z,39.95
2016-11-24T07:25:31.897Z,39.37
2016-11-24T07:26:12.624Z,39.28
2016-11-24T07:26:53.323Z,38.89
2016-11-24T07:27:34.087Z,38.21
2016-11-24T07:28:14.766Z,38.43
2016-11-24T07:28:55.462Z,38.23
2016-11-24T07:29:36.152Z,38.43
2016-11-24T07:30:16.889Z,38.23
2016-11-24T07:30:57.615Z,38.23
2016-11-24T07:31:38.301Z,38.33
2016-11-24T07:32:19.052Z,37.75
2016-11-24T07:32:59.714Z,37.38
2016-11-24T07:33:40.453Z,37.48
2016-11-24T07:34:21.321Z,37.48
2016-11-24T07:35:02.069Z,37.38
2016-11-24T07:35:42.751Z,37.28
2016-11-24T07:36:23.432Z,36.8
2016-11-24T07:37:04.128Z,36.9
2016-11-24T07:37:44.833Z,36.6
2016-11-24T07:38:25.540Z,36.7
2016-11-24T07:39:06.230Z,36.8
2016-11-24T07:39:46.876Z,36.82
2016-11-24T07:40:27.652Z,36.52
2016-11-24T07:41:08.375Z,36.12
2016-11-24T07:41:49.068Z,35.56
2016-11-24T07:42:29.783Z,35.66
2016-11-24T07:43:10.490Z,35.56
2016-11-24T07:43:51.158Z,35.17
2016-11-24T07:44:31.855Z,35.07
2016-11-24T07:45:12.533Z,34.97
2016-11-24T07:45:53.252Z,34.69
2016-11-24T07:46:34.055Z,34.61
2016-11-24T07:47:14.793Z,34.7
2016-11-24T07:47:55.479Z,34.7
2016-11-24T07:48:36.144Z,34.8
2016-11-24T07:49:16.862Z,34.7
2016-11-24T07:49:57.533Z,34.61
2016-11-24T07:50:38.234Z,34.41
2016-11-24T07:51:18.962Z,34.41
2016-11-24T07:51:59.696Z,34.31
2016-11-24T07:52:40.404Z,34.31
2016-11-24T07:53:21.199Z,34.22
2016-11-24T07:54:01.884Z,34.51
2016-11-24T07:54:42.581Z,34.12
2016-11-24T07:55:23.283Z,34.51
2016-11-24T07:56:04.058Z,34.12
2016-11-24T07:56:44.805Z,34.62
2016-11-24T07:57:25.528Z,34.14
2016-11-24T07:58:06.241Z,34.12
2016-11-24T07:58:46.971Z,34.04
2016-11-24T07:59:27.639Z,33.75
2016-11-24T08:00:08.341Z,33.26
2016-11-24T08:00:49.053Z,33.46
2016-11-24T08:01:29.739Z,33.56
2016-11-24T08:02:10.408Z,33.75
2016-11-24T08:02:51.112Z,34.81
2016-11-24T08:03:31.809Z,34.14
2016-11-24T08:04:12.490Z,33.75
2016-11-24T08:04:53.262Z,33.36
2016-11-24T08:05:33.941Z,33.36
2016-11-24T08:06:14.621Z,33.46
2016-11-24T08:06:55.326Z,33.36
2016-11-24T08:07:35.979Z,33.46
2016-11-24T08:08:16.717Z,33.65
2016-11-24T08:08:57.405Z,33.65
2016-11-24T08:09:38.245Z,33.56
2016-11-24T08:10:18.947Z,33.76
2016-11-24T08:10:59.609Z,33.57
2016-11-24T08:11:40.337Z,33.47
2016-11-24T08:12:21.033Z,33.57
2016-11-24T08:13:01.756Z,33.47
2016-11-24T08:13:42.425Z,33.47
2016-11-24T08:14:23.150Z,33.47
2016-11-24T08:15:03.885Z,33.09
2016-11-24T08:15:44.552Z,33.28
2016-11-24T08:16:25.228Z,32.99
2016-11-24T08:17:05.968Z,32.89
2016-11-24T08:17:46.706Z,33.38
2016-11-24T08:18:27.453Z,33.18
2016-11-24T08:19:08.165Z,32.79
2016-11-24T08:19:48.909Z,32.7
2016-11-24T08:20:29.601Z,32.99
2016-11-24T08:21:10.313Z,32.99
2016-11-24T08:21:51.036Z,33.18
2016-11-24T08:22:31.807Z,33.09
2016-11-24T08:23:12.459Z,32.89
2016-11-24T08:23:53.151Z,32.6
2016-11-24T08:24:33.855Z,33.09
2016-11-24T08:25:15.332Z,32.89
2016-11-24T08:25:56.034Z,32.81
2016-11-24T08:26:36.714Z,32.62
2016-11-24T08:27:17.453Z,32.62
2016-11-24T08:27:58.172Z,32.5
2016-11-24T08:28:38.847Z,32.89
2016-11-24T08:29:19.624Z,32.99
2016-11-24T08:30:00.410Z,32.99
2016-11-24T08:30:41.118Z,32.91
2016-11-24T08:31:21.793Z,32.91
2016-11-24T08:32:02.497Z,32.91
2016-11-24T08:32:43.180Z,32.91
2016-11-24T08:33:23.960Z,33.01
2016-11-24T08:34:04.683Z,33.11
2016-11-24T08:34:45.406Z,33.01
2016-11-24T08:35:26.183Z,32.52
2016-11-24T08:36:06.902Z,32.81
2016-11-24T08:36:47.579Z,32.62
2016-11-24T08:37:28.281Z,32.71
2016-11-24T08:38:09.001Z,32.62
2016-11-24T08:38:49.697Z,32.32
2016-11-24T08:39:30.437Z,32.32
2016-11-24T08:40:11.104Z,32.52
2016-11-24T08:40:51.804Z,32.42
2016-11-24T08:41:32.509Z,32.32
2016-11-24T08:42:13.203Z,32.62
2016-11-24T08:42:53.887Z,32.04
2016-11-24T08:43:34.588Z,31.95
2016-11-24T08:44:15.251Z,31.84
2016-11-24T08:44:55.956Z,31.84